« 2011年12月 | トップページ | 2012年2月 »

2012年1月

2012年1月23日 (月)

第三次グアム合宿4日目

今日でグアム合宿も最終日!
OGTさんとホークさんは早朝の便でそれぞれ、成田と福岡に帰りました。
残ったM井さんと私は午後遅くの便なのでそれまでグアム観光をします。

Dscn9891s
最終日はよい天気!

Dscn9892s

Dscn9893s

Dscn9895s

Dscn9896s

Dscn9898s

Dscn9904s

Iphone_095s

Dscn9907s

Dscn9908s

Dscn9910s

Dscn9912s

Dscn9913s

Dscn9916s

Dscn9917s

Iphone_116s
翌日はsnowだったsweat01


| | コメント (0)

2012年1月22日 (日)

第三次グアム合宿3日目

昨日は弾を飛ばしまくったので今日は飛行機を飛ばしましょう・・・・・・って雨です!sweat01

Dscn9797s
スコールと虹が見えます!

フライトの予定は午後からなので朝飯を食べたらレンタカーで観光する事にしました。

Iphone_051s
ホテルの朝ごはん~♪

Dscn9826s
レンタカーで45分くらい走ってタロフォフォの滝公園に来ました!

Dscn9802s
駐車場には犬・・・・??

Dscn9801s
否・・・・「豚よ!豚さんよ!」・・・・sweat01

Iphone_054s
って、あれ?今日は飛行機を飛ばすんぢゃなかったんですか?先生?

Dscn9808s
ってタロフォフォの滝公園にはGOSRと言う日本人の方が経営している射撃場がありまして!自分も初めてグアムに来た時はここで初実弾射撃をしました!きれいな射撃場ですよ!

001
2日連続で実弾射撃をした2人の廃人!私は炊きつけるだけ炊きつけて撃ちませんでしたcat

Dscn9811s
終戦を知らず28年間もグアムのジャングルに潜伏していた横井さんの発見された洞窟?

Dscn9813s
GOSRで射撃すると入園料が安くなりますcat

002
モノレール?で横井さんの発見された洞窟(洞穴)に向かいます。

Dscn9818s
これが横井さんの洞穴の入り口(レプリカ?)

Dscn9828s
ってよく見たらタロフォフォの滝公園の入り口に看板ありましたね!sweat01

Dscn9829s
天気がよくなって来たので空港に向かいます

Dscn9830s
TVA事務所に到着してさっそく教官と打ち合わせ!まずは私がアローでロタ島まで飛ぶ事にしました。写真はパラジャン母機のターボプロップ機!大利根にも欲しいですね!

Dscn9831s
今回、ロタ島まで飛ばしたPA28R パイパーアロー

Iphone_067s
当然IFR仕様でGPSアプローチもできるとか?

Img_6448s
エアラインの4発機が着陸します

Img_6477s
グアム国際空港RWY6Rを離陸してレフトターンディパーチャー!(RWY06とは言わない)

Img_6479s
泊まっているホテルが見えます

Img_6483s
すぐ北側にはアンダーセン空軍基地がありますので管制圏を迂回します。昔はローアプローチとかTGLが出来たらしいです。


Iphone_068s
巡航高度まで上昇します。

Img_6497s
巡航中~

Img_6511s
ロタ島までは30分弱です~

Img_6530s
丘を越えるとロタ島国際空港

Img_6531s
RWY9にアプローチ!風に翻弄されてます!

Img_6533s
手前のオーバーランエリアを滑走路と誤認していたので低い!

Dscn9843s
RWY9接地直前!

Dscn9844s
ロタ国際空港ターミナル

Dscn9854s
ロタでTGLを2回やってグアムに帰ります。ちょうど到着機と重なったので恋人岬でホールド!いつもの癖で45度バンクしたら教官にもっと浅くまわりましょうと言われたsweat01


Dscn9855s
グアム国際空港RWY6Rにアプローチ

Iphone_072s
今回飛ばしたPA28R


続きを読む "第三次グアム合宿3日目"

| | コメント (0)

2012年1月21日 (土)

第三次グアム合宿2日目

PGUM 202254Z 06008KT 10SM BKN036 OVC050 25/24 A2984 RMK AO2 SLP099 T02520236 $ 
PGUM 210336Z 32005KT 10SM OVC014 A2978 RMK AO2 RAE0258 P0000 $
PGUM 210447Z 09008KT 7SM BKN008 BKN014 OVC035 25/24 A2977 RMK AO2 RAE46 P0000 $
PGUM 210754Z 11003KT 4SM -RA BR SCT012 OVC017 25/24 A2979 RMK AO2 SLP080 P0001 T02490244 $
PGUM 211007Z 12003KT 2 1/2SM -RA BR OVC029 24/24 A2982
PGUM 211054Z 05003KT 4SM -RA BR FEW012 OVC020 25/24 A2983 RMK AO2 SLP094 P0003 T02500244 $

グアム合宿2日目sign03
ホテルの部屋は8階の海側の角部屋!景色が良くてアマチュア無線の移動運用に最適!次回はアマチュア無線の移動運用でもしよう!KH2/JM1DVIcat
そうすると、飛行機+弾+電波を飛ばすことになるhappy01

さて、今日は弾を飛ばす予定だ!
天気もこの時期には珍しく1日中雨rainの予報!

Dscn9798s
南国特有のスコールを伴った雨雲!

001
ホテルのレストランで朝食をとりながら打ち合わせ!
M井さんとホークT野さんは私と弾bomb飛ばし!
OGTさんは母校で飛行機airplaneを飛ばす予定!

しかし、お前は飛行機を飛ばしにグアムに行っているんだろsign02
弾を飛ばす暇があったら、さっさと飛行機を飛ばさんかいannoy

と良く言われますが、飛行機は日本でも飛ばせますが、弾は日本で飛ばすと普通の一般人は警察のお世話になってしまいます。せっかくグアムに来たんだから日本で出来ない事をしよう~ってんで弾飛ばしをする事にしました。

予約したのはワールドガンと言う日本人の方が経営する野外射撃場です。
ここはホテル街にある屋内射撃場は「法律上の規制」や「騒音対策」等の関係で、使用済み空薬莢を再使用し、鉛剥き出しの軟らかい弾頭と装薬を減らしたリロード弾薬(再生弾薬)を使う所が殆どです。ワールドガンで使用する弾薬は、軍や警察で使用する軍用に製造された弾薬(軍用弾薬)及び民生品として販売されている高品質の大手弾薬メーカー(ウィンチェスター、レミ ントン、アメリカンイーグル、ウルフ等)が製造した工場出荷弾薬(ファクトリーロード弾)をそのままの状態で提供されています。

9時にホテルの入り口で待ち合わせをしてワールドガンの送迎用のバンを待ちます。我々はレンタカー使用なので駐車場から待ち合わせ場所に行くと既に見覚えのあるバンが止まってしてインストラクターのフランシスさんが出迎えてくれました。ワールドガンのバンの後ろを付いて十分足らずでワールドガンの事務所に到着します。ここで撃つ銃を選び会計する事になりますが、初めての2人は銃器の数と種類にびっくりcat

Dscn9695s

Dscn9697s

Dscn9699s

Iphone_019s

Iphone_020s

002

003

004

005
今日はワールドガンを予約した人は我々3名だけだったので事務所でゆっくりと時間をかけて撃つ銃を決めました。(銃器の種類がありすぎでどれを撃つか迷います)
結局3人とも10セットを選び、おまけで選んだ弾種と同じ銃を追加で4セット、更におまけの6種類の銃を加え20セット撃つ事になりました!3名で重複する銃があるのですそれでも40種類以上の銃を3名で撃つって・・・・・・・cat

Dscn9702s
途中、マトにする缶ジュースや飲み物を購入したあとはワールドガン専用の射撃場に移動します。場所はApra Harber近くのジャングルです。

Dscn9743s
さっそく銃器のご開帳!これはバレット対物ライフル!

Dscn9715s
どんどん並べていきます。手前はドラグノフ狙撃銃

 

Dscn9742s
拳銃にライフルcat

Dscn9741s
リボルバーは少なめですね!

Dscn1960s
射撃場の奥行きは50m程度かな?(2010年のグアム合宿で撮影)

Dscn9712s
今回のレンジの感じ(ブレているので↑参照)



Dscn9714s
今回射撃した弾種を並べてみました。どれがどれだか忘れましたが一番右がバレットM82の弾(12.7×99NATO弾)



Iphone_024s
CZ75B

Iphone_028s
S&W M64 2インチ

Dscn9725s
AK47ピストル ご存知AK47のバレルを短くしてストックを取っ払ったもの!面白いけど撃ちにくい!

Dscn9737s
ルガーP08 名器らしいが撃ちにくかった

Dscn9736s

Dscn9735s
コルトアナコンダ .44マグナムを使用する拳銃!手が痛くなります

Dscn9739s
南部14年式 日本人にあわせて設計されていて持ちやすい!

Iphone_030s
SIG P226 この銃も撃ちやすいですね


Dscn9721s
8mmモーゼル弾をベルトリンクに装填しますnotes

Iphone_046s_2
次はこのMG34を撃ちます


Img_6180s
MG34は残念ながらセミオートに改造されていますが、それでも楽しく連射できました。でも衝撃でサングラスが吹っ飛んだ!

Img_6169s
なんの銃だっけ?

Iphone_033s
DPMS M16 A1


Img_6172s
これはスコープ付で面白いように当たります

Iphone_042s
これは日本軍の兵隊さんが使っていた99式小銃

Iphone_045s
これも日本軍の兵隊さんが使っていた38式歩兵銃

Dscn9726s
そしてひときわデカイ弾はバレットライフルの50 BMGです。

Dscn9727s
すごい衝撃です!バレットライフル M82A1

Dscn9750s

Img_6212s_2



撃った銃

・1  CZ75
・2  SIG P226
・3  S&W M64 2インチ
・4  ルガーP08
・5  コルトアナコンダ
・6  南部14年式
・7  DPMS M16 A1
・8  M1カービン
・9  コルト M4カービン
・10 99式小銃

・11 MG34               ×2セットcat
・12 バレットライフル M82A1    ×2セットcat

・13 AK47ピストル
・14 AK74アラルトライフル
・15 モーゼル98K
・16 ドラグノフ
・17 FN2000
・18 FN PS90

続きを読む "第三次グアム合宿2日目"

| | コメント (0)

2012年1月20日 (金)

第三次グアム合宿1日目

RJAA 192100Z 36013KT 4500 -RA BR FEW005 BKN015 04/02 Q1020 TEMPO BKN012
RJAA 200000Z 03017G27KT 340V050 9999 -RA FEW010 BKN025 05/03 Q1019 WS R34L NOSIG
RJAA 200300Z 02018KT 9000 -RA FEW010 BKN015 05/03 Q1017 TEMPO 03020G32KT
PGUM 200454Z 10009KT 10SM CLR 29/21 A2975 RMK AO2 SLP064 T02940206
PGUM 200854Z 07006KT 10SM FEW060 27/21 A2977 RMK AO2 SLP074 T02670206 51011



寒い日本を抜け出して南国のグアムに行って来ました。そもそも今回のグアム行きは3ヶ月位前から計画して航空券も最安値でGETし、両替も76円代の時にしたり・・・

Dscn9665s
太陽が昇る前に自宅を出発!ここは成田空港第二ターミナルの出発ロビー

Dscn9666s
都内は雪snowが降っているそうですが成田はまだ雨rainです!

Photo
JL941便にて、お隣はJMGCクラブ員のM井さん

Dscn9670s
FL350の世界!下界は雲の下cloud

Dscn9672s
機内食はまぁまぁ~ですね!第一回グアム合宿の時は同じJAL便だったが酷かった!

Dscn9674s
サイパンを過ぎてロタ島が見えて来ました。今回はグアム~ロタを国際フライトする予定!

Dscn9679s
3時間30分で極寒の成田から常夏のグアムに移動です。入国管理が混んでいて大変だったけど自分の時は1分程度で通過!俺って人畜無害なのね・・・sweat02 ちょっと寂しい!

レンタカーを借りて、今回の宿泊先のホテルにチェックインします。Photo_2

夕方、福岡から別便でJMGCのホークさんが合流!ステーキハウスで夕食!

Dscn9683s
おつまみはタマネギのフライ・・・これが美味しいんだな!

Iphone_013s
M井さんが注文したステーキの付け合せは「おっ○い」みたいな盛り付けのライスsweat01


Iphone_011s
ひぇひぇなビールbeer


Dscn9688s
そして肉restaurant レアですsweat01

そして、夜にもうひとりJMGCクラブ員のOGTさんがグアム入りしました!
総勢4名の廃人たちcat

 











| | コメント (0)

2012年1月17日 (火)

開拓

腐海に飲まれた「タヌの森」の開拓は続きます!

Iphone_367s
正面の元畑はほぼ竹の地上部隊を制圧!残りは地下組織だなぁcat

Iphone_368s
元ビニールハウスの骨組みは30年経ってもまだ使えそうです!張替えるかな?


| | コメント (0)

2012年1月15日 (日)

飛行場

今日ものんびりと過ごします~cat

Iphone_362s
クラブの訓練フライトが終わったころ、NGY教官がUコンを飛ばします。元Uコン小僧だった「ロイヤーA氏」がストーカーのようにつけまわしますhappy01


バックの声は興奮してうるさい「ロイヤーA尾」氏ですsweat01

| | コメント (0)

2012年1月 9日 (月)

あふたーもぐらそろ~Next Generation!!

パイロットにとって一生に一度の大切な時・・・・
ファーストソロですcat

普通、ファーストソロはある時突然にやってきます・・・・
普通はね・・・・・

でも、今日のファーストソロは飛行場の皆が待ち焦がれたファーストソロでした(笑)
そうです、飛行場の近所に新築の家を「買っちゃた廃人」のサカツバさんです!

相当前から、「そろそろファーストソロだね!」と教官陣に言われ続けたけど、風が悪かったり時間が悪かったりでなかなかファーストソロに出れなかった・・・・

Iphone_324s
この日、3回目の飛行で主任教官「だけ」が機体から降りると・・・・・

いよいよ、その時がやってきました( ̄ー ̄)ニヤリ

Iphone_328s
と、皆がサカツバ氏のファーストソロを見守る中、ひっそりとファルケのファーストソロに出ていた人がいましたけど・・・・(o^-^o) 




本命!サカツバ氏のファーストソロの着陸です!ちょっと緊張したかな!

Iphone_333s
o360教官のマーシャルで見事にファーストソロを決めます!

Iphone_341s
そして、ファーストソロに出した主任教官と握手heart02

Iphone_342s
そしてファーストソロを影で支えた(正面で支えた?)奥様と記念撮影heart04

Iphone_344s
そして皆で記念撮影camera

Iphone_348s
そして恒例の水掛の儀式は自家用6000時間Pの平岡さんとo360教官、そして何かあった時は強い味方「ロイヤーA尾」氏が念入りに水を掛けてましたcat



この寒空に水掛!(*^m^)

サカツバさん ファーストソロおめでとうございます!




 



| | コメント (0)

2012年1月 8日 (日)

タンデムファルケでソアリング

今日はグライダーの調子が良いらしい。練習であがったASK13がなかなか降りてこないのでタンデムファルケで様子を見に離陸しました。

Iphone_315s
真正面から撮影しないと変な感じに写っちゃいます。。。

Iphone_316s
ASK13の旋廻しているサーマルを捕まえて・・・エンジン停止!0.5upで上昇中!プロペラブレーキでブレード停止させてみました。この後、フェザー位置にセット!ファるケは色々なタイプがあるから覚えるの大変ですsweat01

Iphone_319s
下からASK13が追い上げてきましたが・・・・ここで時間切れ!「リクエスト!マネー・カット・オフ・ランディング!」dollarhairsalon



| | コメント (0)

開拓

自宅前の放置畑が竹林に没して10年・・・・やっとここまで開拓しました!家の前が明るくなった!(笑)

Iphone_312s
狼煙を上げると偵察機が数機上空を低空飛行していきます。対空砲も容易しておこう!cat

| | コメント (0)

2012年1月 7日 (土)

飛行場のカップル?

飛行場に怪しげなカップル出現sign02

Iphone_309s_2
夕日を背に飛行場に立つ怪しいカップルsign02 某ソルジャー氏と某o360教官!

Iphone_311s_2
そんな怪しい2人heart04の上空にセスナの影が通過します(もちろん、計算しつくされて影を通過させます)

なんの実験なんでしょうか?



| | コメント (0)

2012年1月 6日 (金)

凍結!

久しぶりに近所の長門川が凍りましたsnow
今朝の最低気温は氷点下5℃とか・・・・寒い訳だ!

Iphone_305s

| | コメント (0)

2012年1月 4日 (水)

飛行場

飛行場

Iphone_295s
大利根飛行場に新鋭機が配備されました!

Iphone_296s
スポットに駐機します。

Iphone_302s
無バンクで旋廻するのが得意ですcat




| | コメント (0)

2012年1月 3日 (火)

非行(飛行)初めは筑波山神社に初詣!そして毎年恒例の飛行場deお雑煮!

近年のJMGCの非行(飛行)初めは1月3日です
1番機を狙うべく武器商人さんと8時10分に飛行場に着きましたが、なんとmogu爺さんが車で寝ていましたあせあせ(飛び散る汗)
機体を準備しているとクラブ員がワラワラと登場して「次がつっかえるから早く行って帰って来い!」と言われ、フライトプランをファイルして筑波山の筑波山神社に初詣?に行く事にしました。離陸する頃になると時折10KT以上の真横の風が吹きモグラにはいやな感じです。
ヘロヘロと横風に煽られて大利根飛行場を離陸、上空は向かい風成分が強いので高度1500ftで筑波山の近くまで飛行して、直前で筑波山の背風のローターを捕まえて一気山頂まで駆け上ります!
風が強く、他にグライダーやモーターパラ/ハング等は見当たりませんでした。
筑波山神社を上空から初詣して山頂を1周して帰路に帰りますが、今度は高度4000ftで追い風を利用してGS120KTで一気に帰りました。途 中、成田のPCAを西に迂回しました帰りは15分もかからずにびっくり仰天!でもフライトサービスの告げる風は5KTでしたが実際は真横の15KTでファ イナルでは吹流しが真横に向いてしっぽが時折立っていましたげっそり

クラブハウスに入ると恒例のお雑煮が振舞われていたのでありがたく頂戴させて頂きました。
今年も安全に飛び回りたいと思います!

Dscn9566ss_2
2012年の飛び初めの1番機sign03

Dscn9582ss
迎い風が強いので地べたをはって筑波山に向かいます!

Dscn9587ss_2
筑波ヘリポート

Dscn9595ss
筑波山と筑波山神社!初詣です!

Dscn9612ss
山頂を愛でて一目散に飛行場に帰りますsweat01

Dscn9636ss
なんか風強いんですけどぉ?

Dscn9649ss_2
フライトサービスのo360教官いわく5KT。。。絶対うそだ!吹流しが立ってるぢゃんか!

Dscn9644ss
真剣sweat01

Dscn9664ss
無事に着陸して恒例のお雑煮cat


夕方、武器商人のcatさんを成田空港に送り届ける。今度は南極のペンギンに武器を売りつけるんだとか?南極~南米を1ヶ月半程度放浪するらしい。。。いいなぁ~cat










| | コメント (0)

« 2011年12月 | トップページ | 2012年2月 »